Aviation Digital Data Service (ADDS)

Output produced by METARs form (2310 UTC 15 August 2018)
found at http://www.aviationweather.gov/adds/metars/
 
UNAA 152300Z 20001MPS 0200 R02/M0300U FG VV001 10/10 Q1018 R02/090065 NOSIG RMK QBB040 QFE741
TAF AMD UNAA 152201Z 1522/1621 VRB01MPS 0300 FG VV002 
     TEMPO 1522/1602 1000 BR 
     FM160200 09003G08MPS CAVOK
       
URWA 152300Z 13002MPS CAVOK 19/16 Q1017 R09/010070 NOSIG RMK QFE765/1020
TAF URWA 152300Z 1600/1609 10003G08MPS CAVOK
       
USCC 152300Z 29005MPS CAVOK 12/11 Q1013 R27/000060 TEMPO 1100 BR VV004 RMK QFE740
TAF USCC 152000Z 1521/1621 30003G08MPS 9999 SCT040CB 
     TEMPO 1521/1605 3100 -SHRA BR BKN015CB
       
UNBB 152300Z 10003MPS CAVOK 13/09 Q1014 R06/CLRD66 NOSIG RMK QFE738
TAF UNBB 152000Z 1521/1621 13003G08MPS CAVOK 
     TEMPO 1521/1602 07003MPS 0400 FG FU SCT002 
     TEMPO 1602/1603 3100 BR FU FEW003
       
UWKE 152300Z 20005MPS CAVOK 13/10 Q1016 R21/090070 NOSIG RMK QFE745/0993
TAF UWKE 151945Z 1521/1621 20003G09MPS 9999 BKN020 
     TEMPO 1521/1524 17003G09MPS 3100 BR BKN011 
     TEMPO 1600/1604 18005G11MPS 3100 -SHRA BR BKN011CB 
     BECMG 1604/1606 21006G12MPS 
     TEMPO 1604/1618 3100 -SHRA BKN015CB
       
UUOB 152300Z 19003MPS CAVOK 23/11 Q1016 R11/090060 NOSIG
TAF UUOB 152300Z 1600/1609 18003MPS 9999 SCT030
       
TAF URMO 151400Z 1515/1524 10004G10MPS 9999 SCT030
       
TAF ULPB 151955Z 1521/1606 VRB01MPS 6000 SCT011 
     TEMPO 1521/1604 36003MPS 1000 BR BKN011 BKN020
       
USPP 152300Z 25003MPS CAVOK 12/10 Q1014 R21/090060 NOSIG RMK QFE750
TAF USPP 151958Z 1521/1621 22004G09MPS 9999 BKN020 
     TEMPO 1521/1603 3100 BR 
     BECMG 1604/1606 5000 -RA BKN011 OVC100 
     TEMPO 1604/1612 3100 -SHRA BKN015CB
       
UIBB 152300Z 24005MPS 210V270 5000 -SHRA BR BKN040CB 11/11 Q1011 R30/290150 NOSIG RMK QFE715/0954
TAF AMD UIBB 152210Z 1522/1621 25005MPS 1500 SHRA FU BKN004 BKN016CB 
     TEMPO 1522/1603 0300 +SHRA FG VV001 
     BECMG 1611/1612 5000 -SHRA FU BKN016CB
       
TAF UUBP 151351Z 1515/1524 27005MPS 9999 SCT025 SCT030CB 
     TEMPO 1517/1524 27009G14MPS 4000 -TSRA BKN025CB
       
UWKS 152300Z 23002MPS 190V270 9000 VCTS -SHRA SCT020CB 17/16 Q1012 R24/010060 TEMPO -TSRA BKN011CB RMK QFE744
TAF UWKS 152258Z 1600/1609 24005G12MPS 8000 BKN020CB 
     TEMPO 1600/1608 27007G14MPS 3500 -TSRA BKN011CB
       
UUOO 152300Z 18002MPS CAVOK 21/10 Q1015 R12/090070 NOSIG RMK QFE747
TAF UUOO 152300Z 1600/1609 17003MPS CAVOK
       
UEEE 152300Z 14003MPS CAVOK 18/10 Q1012 R23L/09//60 NOSIG RMK QFE750
TAF UEEE 152000Z 1521/1703 14003G08MPS CAVOK
       
UUDD 152300Z 24003MPS 210V290 CAVOK 17/15 Q1012 R88/290095 NOSIG
TAF UUDD 151958Z 1521/1703 26005MPS 8000 SCT020 TX24/1611Z TN16/1602Z 
     TEMPO 1605/1616 -SHRA SCT011 SCT020CB 
     BECMG 1609/1611 32006MPS 
     PROB40 
     TEMPO 1609/1616 -TSRA SCT020CB 
     BECMG 1616/1618 02005MPS SCT011
       
URWW 152300Z 11005MPS CAVOK 19/11 Q1018 R06/010070 NOSIG
TAF URWW 152257Z 1600/1609 08003G08MPS CAVOK 
     TEMPO 1600/1609 11003G08MPS
       
UHBB 152300Z 27001MPS CAVOK 16/13 Q1020 R36/090060 NOSIG RMK QFE748/0997
TAF AMD UHBB 152100Z 1521/1621 33003MPS 9999 NSC 
     BECMG 1602/1604 12003MPS SCT030CB 
     FM161000 18003MPS CAVOK
       
UIII 152300Z 00000MPS CAVOK 12/11 Q1018 R12/CLRD60 NOSIG RMK QFE721/0961
TAF UIII 152000Z 1521/1621 VRB01MPS 9999 BKN011CB 
     TEMPO 1521/1603 0300 FG VV001
       
UIAA 152300Z 21002MPS 9999 -SHRA FEW006 BKN033CB 15/14 Q1014 R29/290150 NOSIG RMK QBB200 MT OBSC QFE702/0936
TAF UIAA 152000Z 1521/1621 30006G14MPS 3100 -SHRA BKN014CB 
     TEMPO 1521/1524 24003G09MPS
       
UWKD 152300Z 17004MPS 9000 -SHRA SCT050CB 18/13 Q1013 R11/2/0050 TEMPO VRB15MPS 3100 -TSRA BKN020CB RMK QFE749/0999
TAF UWKD 151955Z 1521/1621 18006MPS 9999 BKN020 TX25/1610Z TN15/1621Z 
     TEMPO 1521/1603 20007G12MPS 5000 -SHRA BKN011CB 
     TEMPO 1603/1606 22010G15MPS 3100 -SHRA BKN011CB 
     TEMPO 1606/1615 VRB15MPS 2000 TSRAGR SQ BKN007 BKN015CB 
     BECMG 1615/1617 31007G12MPS
       
UNEE 152300Z 06002MPS CAVOK 12/11 Q1016 R23/CLRD60 NOSIG RMK QFE739
TAF UNEE 152000Z 1521/1621 12003MPS 9999 SCT030 
     TEMPO 1521/1602 0300 FG VV001
       
USCC 152300Z 29005MPS CAVOK 12/11 Q1013 R27/000060 TEMPO 1100 BR VV004 RMK QFE740
TAF USCC 152000Z 1521/1621 30003G08MPS 9999 SCT040CB 
     TEMPO 1521/1605 3100 -SHRA BR BKN015CB
       
USCM 152300Z 27004MPS 9999 FEW040 10/08 Q1017 R36/090065 NOSIG RMK QFE724
TAF USCM 152300Z 1600/1609 31003G09MPS 9999 SCT040 
     TEMPO 1600/1603 5000 BR SCT020
       
USHH 152300Z 31001MPS CAVOK 14/13 Q1009 R06/290055 TEMPO 1000 BR BKN007 RMK QFE753
TAF COR USHH 151957Z 1521/1621 36003G08MPS 9999 SCT020CB 
     TEMPO 1521/1604 VRB16MPS 2000 TSRA BR SQ BKN003 OVC015CB 
     TEMPO 1604/1615 3100 -SHRA SCT006 BKN015CB
       
USNN 152300Z 16003MPS CAVOK 16/14 Q1008 R21/0///65 NOSIG RMK QFE751
TAF USNN 152000Z 1521/1621 19003MPS 9999 SCT020CB 
     TEMPO 1521/1603 2000 SHRA BR BKN007 BKN017CB 
     TEMPO 1603/1612 VRB16MPS 2000 TSRA SQ BKN007 BKN016CB
       
USPP 152300Z 25003MPS CAVOK 12/10 Q1014 R21/090060 NOSIG RMK QFE750
TAF USPP 151958Z 1521/1621 22004G09MPS 9999 BKN020 
     TEMPO 1521/1603 3100 BR 
     BECMG 1604/1606 5000 -RA BKN011 OVC100 
     TEMPO 1604/1612 3100 -SHRA BKN015CB
       
USRR 152300Z 35003MPS 1100 0900W R25/1200D FG VV002 16/16 Q1007 R25/250550 NOSIG RMK QFE750
TAF USRR 151955Z 1521/1621 34003MPS 3100 -SHRA BR BKN005 BKN020CB 
     TEMPO 1521/1606 0300 +TSRA FG BKN002 BKN015CB 
     BECMG 1606/1607 02006G11MPS
       
USSS 152300Z 29002MPS CAVOK 12/11 Q1014 R26L/010060 R26R/010060 NOSIG RMK QFE739/0986
TAF USSS 151958Z 1521/1621 30003G08MPS CAVOK 
     BECMG 1610/1611 23003G08MPS BKN011 SCT020CB 
     BECMG 1613/1615 6000 -SHRA
       
USTR 152300Z 01005MPS 9999 BKN008 OVC016CB 14/13 Q1009 R03/290060 TEMPO 35017MPS 2000 SHRA BKN003 BKN015CB RMK QFE747/0996
TAF USTR 152000Z 1521/1621 35008MPS 5000 -SHRA BKN007 BKN020CB 
     TEMPO 1521/1603 34017MPS 1000 TSRA VV003 
     FM160700 34006G11MPS 9999 BKN020CB 
     BECMG 1610/1612 31003MPS SCT030 
     BECMG 1615/1617 18005MPS BKN020CB 
     TEMPO 1618/1621 5000 -SHRA
       
UHSS 152300Z 09002MPS 020V180 9999 -SHRA BKN025CB 15/12 Q1015 R01/190065 NOSIG RMK MT OBSC QFE760/1013
TAF UHSS 152000Z 1521/1703 36003MPS 9999 BKN015CB OVC100 
     TEMPO 1521/1523 -SHRA BKN005 BKN015CB 
     BECMG 1603/1606 03006MPS 
     BECMG 1615/1618 02006G12MPS
       
UMKK 152300Z 22002MPS 6000 SCT018 15/14 Q1018 R24/CLRD60 NOSIG RMK QFE762/1016
TAF UMKK 151956Z 1521/1621 24003MPS 9999 SCT011 SCT015 
     FM152300 VRB01MPS 3100 BR SCT011 
     TEMPO 1523/1604 0300 FG SCT003 
     BECMG 1605/1607 9999 NSW SCT011 BKN020 
     BECMG 1609/1611 33003G08MPS SCT020 
     TEMPO 1611/1615 35006MPS
       
UHWW 152300Z 34007MPS 9999 SCT016 17/14 Q1013 R25L/290060 TEMPO 36009G14MPS RMK QFE759
TAF UHWW 152000Z 1521/1621 35007MPS 9999 BKN017CB 
     TEMPO 1521/1610 36011G16MPS 5000 -SHRA BKN013CB 
     BECMG 1610/1613 36003MPS
       
USSS 152300Z 29002MPS CAVOK 12/11 Q1014 R26L/010060 R26R/010060 NOSIG RMK QFE739/0986
TAF USSS 151958Z 1521/1621 30003G08MPS CAVOK 
     BECMG 1610/1611 23003G08MPS BKN011 SCT020CB 
     BECMG 1613/1615 6000 -SHRA
       
UNKL 152300Z 00000MPS 9000 NSC 07/06 Q1017 R11/CLRD65 NOSIG RMK QFE737
TAF UNKL 151948Z 1521/1621 25003MPS 3100 BR SCT040 
     BECMG 1602/1603 10003G10MPS 9999 NSW
       
UUOK 152000Z 18003MPS CAVOK 19/14 Q1015 R12/CLRD65 NOSIG RMK QFE743/0991
TAF AMD UUOK 151952Z 1518/1603 20003MPS 9999 BKN033
       
UWWW 152300Z 22004MPS CAVOK 17/09 Q1017 R15/CLRD60 NOSIG RMK QFE751/1002
TAF UWWW 152000Z 1521/1621 21006G12MPS 9999 SCT030 BKN100 TX29/1611Z TN14/1601Z 
     TEMPO 1603/1616 24009G15MPS SCT012CB
       
USCM 152300Z 27004MPS 9999 FEW040 10/08 Q1017 R36/090065 NOSIG RMK QFE724
TAF USCM 152300Z 1600/1609 31003G09MPS 9999 SCT040 
     TEMPO 1600/1603 5000 BR SCT020
       
URMM 152300Z 09003MPS 9999 NSC 18/13 Q1014 R12/090070 NOSIG RMK QFE733/0977
TAF URMM 151958Z 1521/1621 11003G08MPS 9999 SCT030 TX32/1612Z TN14/1602Z 
     TEMPO 1600/1605 3100 BR BKN011 
     TEMPO 1606/1615 10007G17MPS
       
USCC 152300Z 29005MPS CAVOK 12/11 Q1013 R27/000060 TEMPO 1100 BR VV004 RMK QFE740
TAF USCC 152000Z 1521/1621 30003G08MPS 9999 SCT040CB 
     TEMPO 1521/1605 3100 -SHRA BR BKN015CB
       
USCM 152300Z 27004MPS 9999 FEW040 10/08 Q1017 R36/090065 NOSIG RMK QFE724
TAF USCM 152300Z 1600/1609 31003G09MPS 9999 SCT040 
     TEMPO 1600/1603 5000 BR SCT020
       
USHH 152300Z 31001MPS CAVOK 14/13 Q1009 R06/290055 TEMPO 1000 BR BKN007 RMK QFE753
TAF COR USHH 151957Z 1521/1621 36003G08MPS 9999 SCT020CB 
     TEMPO 1521/1604 VRB16MPS 2000 TSRA BR SQ BKN003 OVC015CB 
     TEMPO 1604/1615 3100 -SHRA SCT006 BKN015CB
       
USNN 152300Z 16003MPS CAVOK 16/14 Q1008 R21/0///65 NOSIG RMK QFE751
TAF USNN 152000Z 1521/1621 19003MPS 9999 SCT020CB 
     TEMPO 1521/1603 2000 SHRA BR BKN007 BKN017CB 
     TEMPO 1603/1612 VRB16MPS 2000 TSRA SQ BKN007 BKN016CB
       
USPP 152300Z 25003MPS CAVOK 12/10 Q1014 R21/090060 NOSIG RMK QFE750
TAF USPP 151958Z 1521/1621 22004G09MPS 9999 BKN020 
     TEMPO 1521/1603 3100 BR 
     BECMG 1604/1606 5000 -RA BKN011 OVC100 
     TEMPO 1604/1612 3100 -SHRA BKN015CB
       
USRR 152300Z 35003MPS 1100 0900W R25/1200D FG VV002 16/16 Q1007 R25/250550 NOSIG RMK QFE750
TAF USRR 151955Z 1521/1621 34003MPS 3100 -SHRA BR BKN005 BKN020CB 
     TEMPO 1521/1606 0300 +TSRA FG BKN002 BKN015CB 
     BECMG 1606/1607 02006G11MPS
       
USSS 152300Z 29002MPS CAVOK 12/11 Q1014 R26L/010060 R26R/010060 NOSIG RMK QFE739/0986
TAF USSS 151958Z 1521/1621 30003G08MPS CAVOK 
     BECMG 1610/1611 23003G08MPS BKN011 SCT020CB 
     BECMG 1613/1615 6000 -SHRA
       
USTR 152300Z 01005MPS 9999 BKN008 OVC016CB 14/13 Q1009 R03/290060 TEMPO 35017MPS 2000 SHRA BKN003 BKN015CB RMK QFE747/0996
TAF USTR 152000Z 1521/1621 35008MPS 5000 -SHRA BKN007 BKN020CB 
     TEMPO 1521/1603 34017MPS 1000 TSRA VV003 
     FM160700 34006G11MPS 9999 BKN020CB 
     BECMG 1610/1612 31003MPS SCT030 
     BECMG 1615/1617 18005MPS BKN020CB 
     TEMPO 1618/1621 5000 -SHRA
       
UIUU 152300Z 34004MPS 9999 SCT046CB 14/10 Q1016 R26/60D NOSIG RMK QFE717/0957
TAF UIUU 152000Z 1521/1621 34006MPS 9999 BKN030CB
       
ULMM 152300Z 17001MPS 5000 BR FEW001 01/M00 Q1015 R31/090070 TEMPO 0300 FG BKN002 RMK QBB030 OBST OBSC QFE754
TAF ULMM 151955Z 1521/1621 19003MPS 3100 BR SCT011 
     TEMPO 1521/1607 14002MPS 0300 FG BKN002 
     BECMG 1607/1608 9999 NSW SCT015 
     TEMPO 1608/1621 24003MPS -SHRA BKN012CB
       
URMN 152300Z 00000MPS 9999 NSC 16/12 Q1014 R24/////// NOSIG RMK QFE724
TAF URMN 152300Z 1600/1609 04003MPS 9999 SCT030 
     TEMPO 1600/1606 3100 BR SCT011
       
USNN 152300Z 16003MPS CAVOK 16/14 Q1008 R21/0///65 NOSIG RMK QFE751
TAF USNN 152000Z 1521/1621 19003MPS 9999 SCT020CB 
     TEMPO 1521/1603 2000 SHRA BR BKN007 BKN017CB 
     TEMPO 1603/1612 VRB16MPS 2000 TSRA SQ BKN007 BKN016CB
       
UHHH 152300Z 02007MPS 9999 SCT013 18/14 Q1018 R05R/090060 NOSIG RMK QFE757/1010
TAF UHHH 151952Z 1521/1703 02008MPS 9999 SCT020 
     TEMPO 1521/1523 SCT006 SCT020 
     TEMPO 1523/1609 04007G12MPS
       
UWOO 152300Z 00000MPS CAVOK 10/08 Q1019 R26/65D NOSIG RMK QFE753/1005
TAF UWOO 151948Z 1521/1621 33003G08MPS 9999 SCT030 TX28/1612Z TN12/1601Z 
     TEMPO 1521/1603 VRB01MPS 3100 BR 
     BECMG 1603/1605 27006MPS
       
UWOR 152300Z 29005MPS CAVOK 13/08 Q1017 R25/CLRD65 NOSIG RMK QFE739/0986
TAF UWOR 152300Z 1600/1609 27005G10MPS 9999 SCT030 
     TEMPO 1600/1606 32003G08MPS 3100 BR
       
URKK 152300Z 04004MPS CAVOK 22/12 Q1011 R05R/CLRD70 NOSIG RMK QFE755
TAF URKK 151955Z 1521/1621 05003G08MPS 9999 SCT030 
     TEMPO 1521/1612 08008G13MPS
       
ULOO 152300Z AUTO VRB01MPS 7000 // ///010/// 16/14 Q1014 RMK QFE756
TAF ULOO 151358Z 1515/1524 29003MPS 6000 BKN011 BKN020 
     TEMPO 1515/1524 33003MPS 2100 -SHRA BR BKN007 BKN020CB
       
ULLI 152300Z 00000MPS 8000 NSC 12/10 Q1014 R28R/090060 TEMPO 0300 FG SCT003
TAF AMD ULLI 152232Z 1522/1621 32003MPS 3100 MIFG BR SCT011 
     TEMPO 1522/1604 0300 FG SCT003 
     BECMG 1604/1605 35003MPS 
     BECMG 1605/1606 9999 NSW SCT015
       
USTR 152300Z 01005MPS 9999 BKN008 OVC016CB 14/13 Q1009 R03/290060 TEMPO 35017MPS 2000 SHRA BKN003 BKN015CB RMK QFE747/0996
TAF USTR 152000Z 1521/1621 35008MPS 5000 -SHRA BKN007 BKN020CB 
     TEMPO 1521/1603 34017MPS 1000 TSRA VV003 
     FM160700 34006G11MPS 9999 BKN020CB 
     BECMG 1610/1612 31003MPS SCT030 
     BECMG 1615/1617 18005MPS BKN020CB 
     TEMPO 1618/1621 5000 -SHRA
       
UUEE 152300Z 24004MPS CAVOK 16/16 Q1012 R24C/CLRD62 R24L/CLRD62 NOSIG
TAF UUEE 151949Z 1521/1621 26006MPS 9999 SCT030 TX22/1612Z TN15/1603Z 
     TEMPO 1521/1606 3100 -SHRA BR FEW006 SCT030CB 
     BECMG 1604/1606 34005MPS 
     TEMPO 1606/1612 -SHRA SCT030CB
       
URMT 152300Z 12005MPS CAVOK 19/11 Q1015 R07/010070 NOSIG RMK QFE721
TAF URMT 152300Z 1600/1609 12005G11MPS CAVOK 
     FM160600 11009G14MPS 9999 SCT020
       
URSS 152300Z 07005MPS 9999 NSC 23/18 Q1010 WS ALL RWY R06/090070 R02/090070 NOSIG RMK R02/04003MPS QFE756
TAF URSS 151956Z 1521/1621 05006MPS 9999 SCT100 
     BECMG 1606/1607 22005MPS FEW030 
     BECMG 1609/1611 28005G10MPS SCT030CB 
     TEMPO 1609/1616 -TSRA 
     BECMG 1616/1618 05005MPS SCT030
       
UHMM 152300Z 00000MPS 9999 NSC 17/10 Q1017 R10/70D NOSIG RMK QFE748
TAF UHMM 152004Z 1521/1703 10003G08MPS 9999 NSC 
     TEMPO 1600/1609 21003G08MPS SCT040CB
       
UWGG 152300Z 21005MPS 9999 BKN020CB 19/17 Q1009 R18L/290050 NOSIG
TAF UWGG 151958Z 1521/1621 22003MPS 9999 BKN025CB TX23/1612Z TN15/1601Z 
     TEMPO 1521/1609 26007G15MPS 4000 -TSRA
       
USRR 152300Z 35003MPS 1100 0900W R25/1200D FG VV002 16/16 Q1007 R25/250550 NOSIG RMK QFE750
TAF USRR 151955Z 1521/1621 34003MPS 3100 -SHRA BR BKN005 BKN020CB 
     TEMPO 1521/1606 0300 +TSRA FG BKN002 BKN015CB 
     BECMG 1606/1607 02006G11MPS
       
UUYY 152300Z VRB01MPS 9999 SCT003 11/11 Q1012 R18/29//51 TEMPO 0300 FG RMK QBB090 QFE751/1001
TAF UUYY 152000Z 1521/1621 VRB01MPS 4000 -SHRA BR BKN011 BKN020CB 
     TEMPO 1521/1603 0300 FG VV002 
     BECMG 1603/1605 36003G08MPS
       
ULAA 152300Z 02001MPS 9999 SCT040 09/09 Q1014 R08/CLRD70 NOSIG RMK QFE759/1013
TAF ULAA 152000Z 1521/1621 35003MPS 6000 SCT015 
     TEMPO 1521/1603 VRB01MPS 0300 FG BKN002 
     TEMPO 1603/1606 30003MPS 3100 BR SCT011
       
UEEE 152300Z 14003MPS CAVOK 18/10 Q1012 R23L/09//60 NOSIG RMK QFE750
TAF UEEE 152000Z 1521/1703 14003G08MPS CAVOK
       
UNNT 152300Z 13001MPS CAVOK 12/10 Q1014 R07/090070 R16/090070 NOSIG RMK QFE751/1001
TAF UNNT 152000Z 1521/1621 14003G08MPS CAVOK 
     TEMPO 1521/1602 0350 FG SCT001 
     TEMPO 1603/1613 09005MPS
       
UNOO 152300Z 15002MPS 9999 SCT033 16/10 Q1007 R07/CLRD60 NOSIG RMK QFE746
TAF AMD UNOO 152020Z 1521/1621 18005G10MPS 6000 BKN030CB 
     TEMPO 1609/1615 4000 -SHRA BKN010 BKN020CB
       
UWSS 152300Z 19003MPS CAVOK 19/13 Q1018 R12/010095 NOSIG RMK QFE751
TAF UWSS 152300Z 1600/1609 20003MPS 9999 SCT040 
     TEMPO 1600/1603 4000 BR SCT015 
     TEMPO 1603/1609 22006MPS SCT030CB
       
UUDL 152300Z 22003MPS CAVOK 16/15 Q1008 R23/290055 NOSIG RMK QFE748
TAF UUDL 152000Z 1521/1621 22003MPS 8000 BKN020 
     TEMPO 1521/1604 BKN005 
     BECMG 1604/1606 33005MPS
       
UWUU 152300Z 21004MPS CAVOK 11/09 Q1017 R32L/0///60 NOSIG RMK QFE750/1001
TAF UWUU 151958Z 1521/1621 21005G10MPS 9999 BKN040 
     TEMPO 1521/1603 25003G08MPS 3100 BR 
     TEMPO 1606/1621 VRB18MPS 3100 -TSRAGR BKN011CB
       
UHMA 152300Z 29006MPS CAVOK 18/07 Q1015 R88/60D NOSIG RMK END R19/29005MPS QFE756/1008
TAF UHMA 151952Z 1521/1621 24003MPS 9999 SCT035 
     TEMPO 1521/1621 29006MPS
       
URML 152300Z 23002MPS 9999 NSC 18/16 Q1015 R14/01//70 NOSIG RMK QFE761/1015
TAF URML 152300Z 1600/1609 21003G10MPS 9999 SCT013 
     FM160600 12004G10MPS 9999 SCT030
       
URKA 152300Z AUTO 07002MPS 9999 // NCD 22/13 Q1011 RMK QFE754/1006
TAF URKA 151955Z 1521/1621 05005G10MPS CAVOK 
     TEMPO 1606/1612 09007G14MPS
       
UUWW 152300Z 22003MPS CAVOK 16/16 Q1012 R24/190060 NOSIG
TAF UUWW 151958Z 1521/1621 26003MPS 9999 BKN030 TX22/1612Z TN15/1603Z 
     TEMPO 1521/1606 3100 -SHRA BR FEW004 SCT020CB 
     BECMG 1604/1606 33005MPS 
     TEMPO 1606/1618 34008G14MPS 3100 -TSRA BKN025CB
       
UWLW 152300Z 20002MPS 8000 NSC 15/10 Q1015 R20/CLRD60 NOSIG RMK QFE756
TAF UWLW 151945Z 1521/1621 19003MPS 8000 SCT030 
     TEMPO 1521/1523 23006MPS 
     BECMG 1523/1524 20005G12MPS 
     TEMPO 1600/1618 24007G14MPS 5000 -SHRA BKN015CB 
     BECMG 1618/1620 36003G09MPS
       
UEEE 152300Z 14003MPS CAVOK 18/10 Q1012 R23L/09//60 NOSIG RMK QFE750
TAF UEEE 152000Z 1521/1703 14003G08MPS CAVOK
       
UHPP 152300Z 32006MPS 9999 SCT040 15/10 Q1011 R16R/290155 NOSIG RMK MT OBSC QFE755/1007
TAF UHPP 151954Z 1521/1703 36003G12MPS 9999 BKN025CB 
     TEMPO 1521/1610 18003G12MPS -SHRA SCT011 OVC020CB 
     FM161000 34003G12MPS 9999 SCT030CB